logo
Rechercher aéroport 
image banner adimage banner adimage banner ad
image banner ad

5B1 - John H Boylan State (Island Pond)

Situé à Island Pond, United States

ICAO - 5B1, IATA -

Données fournies par Airmate  

Information générale

Coordonnées: N44°47'24" W71°49'35"
Élévation : 1194 feet MSL.
Variation magnétique : -17° East
Voir autres Aéroports à Vermont

Données opérationnelles

Special qualification required
Heure actuelle UTC:
Heure actuelle locale:
Météo à : KCDA - Caledonia County ( 29 km )
METAR: KCDA 220715Z AUTO 11003KT 10SM BKN070 OVC085 17/16 A2991 RMK AO2 T01650156 PWINO
Voir NOTAMs / SUP AIP / TFR affectant cet aéroport [VIEW]
Fréquences de communication: [VIEW]

Pistes:

Identifiant RWYQFULongueur (ft)Largeur (ft)SurfaceLDA (ft)
14124°2650120GRASS
32304°2650120GRASS

Coordonnées de l'aéroport

Adresse: Island Pond United States

Vue satellite de 5B1